createdAt,value
2022-10-22T00:00:53.539Z,11.13
2022-10-22T00:03:41.709Z,9.57
2022-10-22T00:06:29.857Z,9.93
2022-10-22T00:09:18.348Z,9.35
2022-10-22T00:12:10.210Z,10.88
2022-10-22T00:14:58.474Z,10.98
2022-10-22T00:17:47.201Z,11.25
2022-10-22T00:20:35.333Z,11.30
2022-10-22T00:23:23.426Z,10.80
2022-10-22T00:26:14.807Z,10.02
2022-10-22T00:29:03.106Z,10.55
2022-10-22T00:31:51.485Z,10.45
2022-10-22T00:34:39.421Z,11.88
2022-10-22T00:37:27.484Z,12.48
2022-10-22T00:40:20.338Z,14.70
2022-10-22T00:43:19.762Z,14.95
2022-10-22T00:46:07.992Z,17.38
2022-10-22T00:49:00.080Z,18.65
2022-10-22T00:51:48.298Z,20.20
2022-10-22T00:54:37.384Z,22.45
2022-10-22T00:57:31.403Z,26.73
2022-10-22T01:00:20.597Z,26.20
2022-10-22T01:03:08.927Z,28.27
2022-10-22T01:06:00.809Z,26.50
2022-10-22T01:09:38.726Z,25.58
2022-10-22T01:13:09.615Z,26.13
2022-10-22T01:16:35.826Z,25.73
2022-10-22T01:19:49.371Z,24.15
2022-10-22T01:23:33.975Z,27.02
2022-10-22T01:26:54.854Z,23.85
2022-10-22T01:29:59.131Z,25.30
2022-10-22T01:32:56.249Z,25.65
2022-10-22T01:35:46.185Z,26.55
2022-10-22T01:38:34.891Z,21.63
2022-10-22T01:41:23.188Z,26.33
2022-10-22T01:47:47.982Z,20.75
2022-10-22T01:51:25.218Z,24.10
2022-10-22T01:54:36.548Z,25.92
2022-10-22T01:57:37.077Z,22.90
2022-10-22T02:00:26.482Z,21.92
2022-10-22T02:03:37.852Z,25.65
2022-10-22T02:06:27.850Z,26.90
2022-10-22T02:09:21.224Z,24.65
2022-10-22T02:12:15.099Z,26.00
2022-10-22T02:15:04.831Z,26.85
2022-10-22T02:17:54.848Z,27.58
2022-10-22T02:20:43.122Z,30.42
2022-10-22T02:23:31.359Z,30.17
2022-10-22T02:26:41.966Z,28.05
2022-10-22T02:29:42.946Z,23.83
2022-10-22T02:33:27.572Z,24.67
2022-10-22T02:36:17.913Z,22.02
2022-10-22T02:39:13.479Z,23.17
2022-10-22T02:42:05.852Z,22.05
2022-10-22T02:44:53.884Z,22.30
2022-10-22T02:47:42.301Z,24.73
2022-10-22T02:50:33.341Z,26.13
2022-10-22T02:53:26.151Z,24.40
2022-10-22T02:56:23.911Z,22.58
2022-10-22T02:59:18.833Z,23.30
2022-10-22T03:02:15.310Z,19.45
2022-10-22T03:05:04.671Z,17.50
2022-10-22T03:07:52.920Z,20.77
2022-10-22T03:10:43.769Z,20.50
2022-10-22T03:13:38.757Z,19.80
2022-10-22T03:16:36.005Z,22.02
2022-10-22T03:19:27.313Z,23.23
2022-10-22T03:22:24.200Z,21.45
2022-10-22T03:25:20.221Z,25.35
2022-10-22T03:28:16.307Z,20.73
2022-10-22T03:31:15.035Z,20.77
2022-10-22T03:34:04.773Z,21.83
2022-10-22T03:36:57.441Z,22.33
2022-10-22T03:39:46.039Z,16.67
2022-10-22T03:42:34.855Z,15.30
2022-10-22T03:45:26.886Z,17.55
2022-10-22T03:48:18.321Z,18.70
2022-10-22T03:51:06.817Z,15.93
2022-10-22T03:53:57.603Z,18.20
2022-10-22T03:56:54.122Z,15.35
2022-10-22T03:59:45.469Z,14.38
2022-10-22T04:02:33.476Z,13.00
2022-10-22T04:05:21.600Z,9.75
2022-10-22T04:08:09.851Z,8.38
2022-10-22T04:10:58.330Z,7.45
2022-10-22T04:13:49.978Z,7.03
2022-10-22T04:16:40.713Z,5.38
2022-10-22T04:19:31.394Z,5.68
2022-10-22T04:22:19.411Z,4.88
2022-10-22T04:25:07.552Z,4.75
2022-10-22T04:27:55.671Z,5.10
2022-10-22T04:30:44.143Z,4.63
2022-10-22T04:33:43.972Z,4.50
2022-10-22T04:36:31.897Z,4.80
2022-10-22T04:39:19.815Z,4.07
2022-10-22T04:42:07.911Z,4.40
2022-10-22T04:44:58.222Z,4.30
2022-10-22T04:47:48.633Z,4.40
2022-10-22T04:50:39.511Z,4.65
2022-10-22T04:53:28.210Z,4.28
2022-10-22T04:56:25.043Z,3.90
2022-10-22T04:59:13.764Z,4.38
2022-10-22T05:02:01.974Z,4.65
2022-10-22T05:04:49.918Z,4.50
2022-10-22T05:07:40.812Z,4.85
2022-10-22T05:10:29.150Z,4.47
2022-10-22T05:13:17.391Z,4.40
2022-10-22T05:16:06.226Z,4.07
2022-10-22T05:18:54.098Z,4.03
2022-10-22T05:21:45.108Z,4.57
2022-10-22T05:24:35.558Z,4.45
2022-10-22T05:27:23.498Z,4.72
2022-10-22T05:30:11.977Z,5.85
2022-10-22T05:32:59.926Z,4.63
2022-10-22T05:35:48.053Z,8.50
2022-10-22T05:38:36.603Z,12.15
2022-10-22T05:41:26.617Z,13.18
2022-10-22T06:11:40.067Z,7.15
2022-10-22T06:14:29.592Z,6.82
2022-10-22T06:17:19.639Z,6.07
2022-10-22T06:20:08.973Z,6.25
2022-10-22T06:22:57.252Z,5.55
2022-10-22T06:25:46.436Z,3.15
2022-10-22T06:28:36.657Z,4.32
2022-10-22T06:31:26.239Z,3.67
2022-10-22T06:34:15.700Z,3.58
2022-10-22T06:37:03.735Z,3.70
2022-10-22T06:39:54.080Z,3.65
2022-10-22T06:42:42.864Z,3.72
2022-10-22T06:45:31.125Z,3.58
2022-10-22T06:48:19.351Z,3.42
2022-10-22T06:51:12.955Z,3.33
2022-10-22T06:54:01.279Z,3.67
2022-10-22T06:56:49.573Z,4.20
2022-10-22T06:59:38.047Z,3.20
2022-10-22T07:02:26.151Z,3.78
2022-10-22T07:05:14.378Z,4.18
2022-10-22T07:08:02.909Z,2.92
2022-10-22T07:10:53.899Z,2.92
2022-10-22T07:13:44.916Z,3.20
2022-10-22T07:16:33.413Z,2.95
2022-10-22T07:19:22.300Z,3.50
2022-10-22T07:22:10.610Z,2.92
2022-10-22T07:24:59.995Z,2.83
2022-10-22T07:27:55.645Z,2.63
2022-10-22T07:30:43.814Z,2.70
2022-10-22T07:33:32.664Z,2.88
2022-10-22T07:36:21.898Z,2.58
2022-10-22T07:39:14.616Z,2.60
2022-10-22T07:42:03.085Z,2.65
2022-10-22T07:44:51.460Z,2.40
2022-10-22T07:47:40.289Z,2.83
2022-10-22T07:50:33.743Z,2.72
2022-10-22T07:53:22.646Z,2.63
2022-10-22T07:56:11.453Z,2.70
2022-10-22T08:01:48.915Z,2.45
2022-10-22T08:04:37.135Z,2.10
2022-10-22T08:07:29.882Z,1.77
2022-10-22T08:10:18.860Z,1.95
2022-10-22T08:13:08.010Z,2.22
2022-10-22T08:15:57.737Z,1.63
2022-10-22T08:18:46.209Z,1.75
2022-10-22T08:21:34.574Z,2.03
2022-10-22T08:24:22.810Z,1.70
2022-10-22T08:27:11.658Z,1.52
2022-10-22T08:29:59.658Z,1.70
2022-10-22T08:32:54.005Z,2.05
2022-10-22T08:35:42.655Z,2.28
2022-10-22T08:38:33.668Z,1.85
2022-10-22T08:41:24.977Z,2.00
2022-10-22T08:44:44.023Z,1.75
2022-10-22T08:48:01.854Z,1.70
2022-10-22T08:50:54.850Z,2.30
2022-10-22T08:54:19.422Z,2.00
2022-10-22T08:57:29.384Z,2.25
2022-10-22T09:01:14.814Z,1.77
2022-10-22T09:04:27.220Z,1.75
2022-10-22T09:07:21.491Z,1.92
2022-10-22T09:10:13.795Z,1.50
2022-10-22T09:13:02.821Z,1.45
2022-10-22T09:16:00.398Z,1.40
2022-10-22T09:19:26.127Z,1.33
2022-10-22T09:23:00.206Z,1.23
2022-10-22T09:25:53.337Z,1.45
2022-10-22T09:28:50.479Z,1.20
2022-10-22T09:31:38.383Z,1.65
2022-10-22T09:34:38.393Z,1.45
2022-10-22T09:37:29.861Z,2.45
2022-10-22T09:41:18.885Z,1.48
2022-10-22T10:00:45.303Z,1.45
2022-10-22T10:57:12.863Z,1.50
2022-10-22T11:00:40.469Z,1.30
2022-10-22T11:07:36.245Z,0.82
2022-10-22T11:11:19.577Z,1.10
2022-10-22T11:14:56.394Z,0.95
2022-10-22T11:18:43.705Z,1.13
2022-10-22T11:28:50.332Z,2.13
2022-10-22T11:32:15.859Z,1.58
2022-10-22T11:40:26.301Z,1.10
2022-10-22T11:44:15.742Z,1.02
2022-10-22T11:48:25.974Z,1.20
2022-10-22T11:52:10.317Z,1.17
2022-10-22T11:59:08.727Z,1.50
2022-10-22T12:06:57.071Z,1.38
2022-10-22T13:27:36.375Z,1.17
2022-10-22T13:30:45.786Z,1.33
2022-10-22T13:33:42.274Z,1.15
2022-10-22T13:37:50.714Z,1.50
2022-10-22T13:42:32.387Z,1.73
2022-10-22T16:47:26.786Z,3.58
2022-10-22T16:50:21.865Z,3.38
2022-10-22T16:53:15.898Z,3.63
2022-10-22T16:56:04.908Z,4.63
2022-10-22T16:58:56.974Z,7.25
2022-10-22T17:01:51.278Z,4.18
2022-10-22T17:04:53.518Z,3.50
2022-10-22T17:07:53.775Z,3.95
2022-10-22T17:10:42.860Z,4.55
2022-10-22T17:13:37.360Z,4.35
2022-10-22T17:16:33.071Z,4.80
2022-10-22T17:19:23.700Z,5.55
2022-10-22T17:22:25.530Z,4.00
2022-10-22T17:25:26.315Z,4.78
2022-10-22T17:28:15.260Z,5.53
2022-10-22T17:31:18.323Z,5.57
2022-10-22T17:34:11.091Z,5.10
2022-10-22T17:37:00.916Z,4.88
2022-10-22T17:39:49.594Z,5.85
2022-10-22T17:42:38.802Z,6.00
2022-10-22T17:45:30.694Z,6.20
2022-10-22T17:48:20.183Z,6.00
2022-10-22T17:51:12.273Z,5.03
2022-10-22T17:54:07.336Z,5.57
2022-10-22T17:57:00.184Z,5.78
2022-10-22T17:59:54.273Z,5.90
2022-10-22T18:02:46.329Z,5.90
2022-10-22T18:05:36.255Z,6.53
2022-10-22T18:08:26.336Z,5.82
2022-10-22T18:11:23.354Z,5.57
2022-10-22T18:15:37.308Z,6.18
2022-10-22T18:19:16.118Z,6.47
2022-10-22T18:22:30.253Z,6.35
2022-10-22T18:25:19.308Z,6.85
2022-10-22T18:28:14.207Z,6.43
2022-10-22T18:31:07.712Z,6.45
2022-10-22T18:33:59.837Z,6.37
2022-10-22T18:36:51.359Z,6.95
2022-10-22T18:39:39.694Z,7.63
2022-10-22T18:42:31.905Z,6.78
2022-10-22T18:45:23.686Z,7.72
2022-10-22T18:48:18.970Z,8.07
2022-10-22T18:51:11.238Z,8.48
2022-10-22T18:54:22.200Z,7.68
2022-10-22T18:57:11.312Z,8.63
2022-10-22T19:00:04.290Z,9.48
2022-10-22T19:02:58.100Z,9.98
2022-10-22T19:05:56.384Z,9.32
2022-10-22T19:08:57.597Z,7.45
2022-10-22T19:12:00.692Z,7.85
2022-10-22T19:14:59.071Z,8.27
2022-10-22T19:17:49.957Z,8.98
2022-10-22T19:20:41.754Z,10.75
2022-10-22T19:26:37.079Z,11.48
2022-10-22T19:29:29.819Z,11.13
2022-10-22T19:32:20.825Z,12.25
2022-10-22T19:35:11.056Z,12.93
2022-10-22T19:38:05.449Z,12.52
2022-10-22T19:41:21.003Z,13.05
2022-10-22T19:47:43.706Z,12.18
2022-10-22T20:08:12.413Z,9.57
2022-10-22T20:11:02.121Z,10.10
2022-10-22T20:13:54.675Z,8.68
2022-10-22T20:16:45.990Z,9.18
2022-10-22T20:19:34.474Z,10.35
2022-10-22T20:22:22.804Z,10.00
2022-10-22T20:25:15.196Z,10.90
2022-10-22T20:28:09.868Z,12.35
2022-10-22T20:31:07.120Z,10.77
2022-10-22T20:33:59.607Z,10.00
2022-10-22T20:36:53.051Z,8.73
2022-10-22T20:39:41.984Z,9.90
2022-10-22T20:42:36.278Z,11.77
2022-10-22T20:45:24.921Z,11.15
2022-10-22T20:48:15.143Z,11.00
2022-10-22T20:51:13.381Z,12.15
2022-10-22T20:54:05.823Z,10.55
2022-10-22T20:56:55.275Z,10.55
2022-10-22T20:59:44.198Z,11.27
2022-10-22T21:02:35.693Z,11.73
2022-10-22T21:05:27.486Z,10.82
2022-10-22T21:08:25.976Z,10.18
2022-10-22T21:11:17.716Z,10.52
2022-10-22T21:14:13.625Z,9.15
2022-10-22T21:17:08.640Z,8.63
2022-10-22T21:20:08.470Z,6.85
2022-10-22T21:22:57.963Z,7.15
2022-10-22T21:26:01.266Z,6.75
2022-10-22T21:28:53.125Z,6.60
2022-10-22T21:31:47.149Z,6.88
2022-10-22T21:34:39.152Z,6.70
2022-10-22T21:37:31.837Z,6.50
2022-10-22T21:40:22.965Z,6.68
2022-10-22T21:43:13.972Z,7.47
2022-10-22T21:46:13.783Z,6.35
2022-10-22T21:49:05.392Z,5.80
2022-10-22T21:51:56.237Z,5.07
2022-10-22T21:54:48.551Z,5.60
2022-10-22T21:57:40.128Z,6.00
2022-10-22T22:00:34.870Z,5.63
2022-10-22T22:03:36.175Z,6.00
2022-10-22T22:06:39.676Z,5.22
2022-10-22T22:09:34.690Z,9.68
2022-10-22T22:12:23.430Z,9.55
2022-10-22T22:15:14.339Z,8.82
2022-10-22T22:18:05.136Z,10.15
2022-10-22T22:21:01.188Z,8.32
2022-10-22T22:23:52.798Z,7.85
2022-10-22T22:26:53.971Z,8.07
2022-10-22T22:32:51.242Z,6.32
2022-10-22T22:35:42.639Z,5.57
2022-10-22T22:38:34.216Z,5.57
2022-10-22T22:41:23.310Z,5.18
2022-10-22T22:44:15.220Z,5.15
2022-10-22T22:47:09.626Z,5.78
2022-10-22T22:49:58.450Z,5.13
2022-10-22T22:52:51.899Z,5.22
2022-10-22T22:55:43.171Z,4.73
2022-10-22T22:58:31.833Z,4.20
2022-10-22T23:01:30.263Z,4.72
2022-10-22T23:04:26.857Z,4.82
2022-10-22T23:07:26.995Z,4.68
2022-10-22T23:10:23.003Z,4.38
2022-10-22T23:13:18.954Z,5.25
2022-10-22T23:16:13.008Z,5.20
2022-10-22T23:19:03.412Z,5.40
2022-10-22T23:21:55.167Z,5.95
2022-10-22T23:24:46.596Z,5.70
2022-10-22T23:27:35.204Z,5.18
2022-10-22T23:30:27.003Z,5.22
2022-10-22T23:33:19.427Z,5.32
2022-10-22T23:36:08.230Z,5.43
2022-10-22T23:38:56.543Z,5.88
2022-10-22T23:41:45.151Z,5.65
2022-10-22T23:44:33.502Z,5.75
2022-10-22T23:47:21.724Z,6.47
2022-10-22T23:50:10.005Z,5.25
2022-10-22T23:53:08.865Z,5.85
2022-10-22T23:56:09.630Z,5.35
2022-10-22T23:58:59.015Z,6.00
